Time;durP1;ratioP1;P1;durP2;ratioP2;P2;SDS_P1;SDS_P2;PMS_P1;PMS_P2;Temp;Humidity;BMP_temperature;BMP_pressure;BME280_temperature;BME280_humidity;BME280_pressure;Samples;Min_cycle;Max_cycle;Signal;HPM_P1;HPM_P2
2021/04/19 00:00:58;;;;;;;;;;;;;;;;;;5073612;28;20060;-72
2021/04/19 00:03:24;;;;;;;;;;;;;;;;;;5064697;28;19904;-74
2021/04/19 00:05:50;;;;;;;;;;;;;;;;;;5073231;28;19908;-72
2021/04/19 00:08:16;;;;;;;;;;;;;;;;;;5073733;28;19915;-73
2021/04/19 00:10:42;;;;;;;;;;;;;;;;;;5073905;28;19952;-74
2021/04/19 00:13:08;;;;;;;;;;;;;;;;;;5073157;28;19923;-73
2021/04/19 00:15:34;;;;;;;;;;;;;;;;;;5072831;28;19927;-73
2021/04/19 00:18:00;;;;;;;;;;;231.10;2150.40;;;;;;5073386;28;19908;-73
2021/04/19 00:20:25;;;;;;;;;;;230.90;2124.80;;;;;;5073150;28;19990;-71
2021/04/19 00:22:51;;;;;;;;;;;230.80;2099.20;;;;;;5073466;28;20028;-72
2021/04/19 00:25:17;;;;;;;;;;;;;;;;;;5072975;28;20366;-71
2021/04/19 00:27:42;;;;;;;;;;;230.50;2124.80;;;;;;5073187;28;19950;-67
2021/04/19 00:30:08;;;;;;;;;;;230.50;2124.80;;;;;;5073304;28;19904;-67
2021/04/19 00:32:34;;;;;;;;;;;230.40;2150.40;;;;;;5065974;28;20390;-67
2021/04/19 00:35:00;;;;;;;;;;;;;;;;;;5066521;28;19911;-71
2021/04/19 00:37:26;;;;;;;;;;;;;;;;;;5072800;28;19994;-72
2021/04/19 00:39:52;;;;;;;;;;;;;;;;;;5055068;28;19985;-66
2021/04/19 00:42:18;;;;;;;;;;;;;;;;;;5073018;28;19904;-70
2021/04/19 00:44:47;;;;;;;;;;;;;;;;;;5072949;28;20263;-72
2021/04/19 00:47:13;;;;;;;;;;;;;;;;;;5072743;28;19945;-67
2021/04/19 00:49:38;;;;;;;;;;;;;;;;;;5058837;28;20359;-68
2021/04/19 00:52:04;;;;;;;;;;;;;;;;;;5073083;28;20356;-68
2021/04/19 00:54:30;;;;;;;;;;;;;;;;;;5072540;28;19958;-73
2021/04/19 00:56:56;;;;;;;;;;;;;;;;;;5072844;28;19908;-66
2021/04/19 00:59:22;;;;;;;;;;;;;;;;;;5072635;28;19911;-67
2021/04/19 01:01:48;;;;;;;;;;;;;;;;;;5072269;28;19912;-72
2021/04/19 01:04:14;;;;;;;;;;;;;;;;;;5064772;28;19904;-73
2021/04/19 01:06:40;;;;;;;;;;;;;;;;;;5072514;28;19904;-72
2021/04/19 01:09:06;;;;;;;;;;;230.90;2073.60;;;;;;5072616;28;20251;-72
2021/04/19 01:11:32;;;;;;;;;;;230.40;2124.80;;;;;;5072502;28;19909;-71
2021/04/19 01:13:57;;;;;;;;;;;230.50;2099.20;;;;;;5072128;28;19920;-71
2021/04/19 01:16:23;;;;;;;;;;;230.60;2099.20;;;;;;5072832;28;19908;-65
2021/04/19 01:18:48;;;;;;;;;;;230.50;2124.80;;;;;;5071864;28;19908;-67
2021/04/19 01:21:14;;;;;;;;;;;230.60;2099.20;;;;;;5072307;28;19916;-71
2021/04/19 01:23:39;;;;;;;;;;;230.70;2099.20;;;;;;5072617;28;19950;-69
2021/04/19 01:26:05;;;;;;;;;;;230.50;2124.80;;;;;;5072486;28;20323;-65
2021/04/19 01:28:31;;;;;;;;;;;230.50;2124.80;;;;;;5072287;28;19912;-71
2021/04/19 01:30:56;;;;;;;;;;;230.40;2150.40;;;;;;5072408;28;19915;-71
2021/04/19 01:33:22;;;;;;;;;;;230.50;2150.40;;;;;;5058760;28;20393;-67
2021/04/19 01:35:48;;;;;;;;;;;230.40;2176.00;;;;;;5072419;28;19908;-72
2021/04/19 01:38:15;;;;;;;;;;;230.40;2150.40;;;;;;5072300;28;19951;-73
2021/04/19 01:40:41;;;;;;;;;;;;;;;;;;5072122;28;19910;-74
2021/04/19 01:43:07;;;;;;;;;;;;;;;;;;5072240;28;19904;-73
2021/04/19 01:45:33;;;;;;;;;;;;;;;;;;5071867;28;19960;-73
2021/04/19 01:47:58;;;;;;;;;;;;;;;;;;5067907;28;20383;-66
2021/04/19 01:50:24;;;;;;;;;;;;;;;;;;5062712;28;19955;-73
2021/04/19 01:52:50;;;;;;;;;;;;;;;;;;5071939;28;20401;-73
2021/04/19 01:55:16;;;;;;;;;;;;;;;;;;5072167;28;19908;-72
2021/04/19 01:57:43;;;;;;;;;;;205.40;2252.80;;;;;;5072033;28;19904;-72
2021/04/19 02:00:09;;;;;;;;;;;205.50;2252.80;;;;;;5072140;28;19911;-66
2021/04/19 02:02:35;;;;;;;;;;;;;;;;;;5065152;28;20102;-74
2021/04/19 02:05:02;;;;;;;;;;;;;;;;;;5070592;28;19904;-71
2021/04/19 02:07:27;;;;;;;;;;;;;;;;;;5071938;28;19905;-73
2021/04/19 02:09:54;;;;;;;;;;;;;;;;;;5071922;28;19915;-73
2021/04/19 02:12:20;;;;;;;;;;;;;;;;;;5071892;28;19934;-73
2021/04/19 02:14:55;;;;;;;;;;;205.60;2252.80;;;;;;5071554;28;20027;-70
2021/04/19 02:17:23;;;;;;;;;;;205.70;2201.60;;;;;;5071659;28;19904;-71
2021/04/19 02:19:49;;;;;;;;;;;;;;;;;;5071849;28;19958;-68
2021/04/19 02:22:15;;;;;;;;;;;;;;;;;;5071895;28;19904;-73
2021/04/19 02:24:43;;;;;;;;;;;231.00;2022.40;;;;;;5071926;28;19905;-71
2021/04/19 02:27:11;;;;;;;;;;;231.20;2048.00;;;;;;5072183;28;19904;-71
2021/04/19 02:29:39;;;;;;;;;;;231.20;2022.40;;;;;;5073407;28;19904;-72
2021/04/19 02:32:06;;;;;;;;;;;231.10;2048.00;;;;;;5073037;28;19922;-73
2021/04/19 02:34:33;;;;;;;;;;;230.80;2073.60;;;;;;5064723;28;20355;-73
2021/04/19 02:37:00;;;;;;;;;;;230.90;2073.60;;;;;;5075502;28;19904;-72
2021/04/19 02:39:27;;;;;;;;;;;230.90;2073.60;;;;;;5075114;28;19908;-72
2021/04/19 02:41:53;;;;;;;;;;;231.00;2073.60;;;;;;5075233;28;20267;-73
2021/04/19 02:44:23;;;;;;;;;;;231.20;2022.40;;;;;;5075488;28;19919;-73
2021/04/19 02:46:49;;;;;;;;;;;256.00;1996.80;;;;;;5075225;28;19908;-72
2021/04/19 02:49:15;;;;;;;;;;;231.30;2022.40;;;;;;5060899;28;19908;-66
2021/04/19 02:51:42;;;;;;;;;;;256.00;2022.40;;;;;;5075449;28;19954;-66
2021/04/19 02:54:09;;;;;;;;;;;231.20;2022.40;;;;;;5074927;28;20430;-68
2021/04/19 02:56:35;;;;;;;;;;;231.20;2022.40;;;;;;5074894;28;19904;-70
2021/04/19 02:59:03;;;;;;;;;;;231.30;2022.40;;;;;;5074948;28;19905;-74
2021/04/19 03:01:31;;;;;;;;;;;231.30;2022.40;;;;;;5075011;28;20273;-68
2021/04/19 03:03:57;;;;;;;;;;;;;;;;;;5066956;28;19911;-74
2021/04/19 03:06:22;;;;;;;;;;;;;;;;;;5074690;28;19963;-71
2021/04/19 03:08:48;;;;;;;;;;;;;;;;;;5074791;28;20354;-73
2021/04/19 03:11:14;;;;;;;;;;;;;;;;;;5074712;28;19904;-70
2021/04/19 03:13:40;;;;;;;;;;;;;;;;;;5074421;28;19917;-74
2021/04/19 03:16:06;;;;;;;;;;;;;;;;;;5074085;28;19927;-72
2021/04/19 03:18:32;;;;;;;;;;;;;;;;;;5074493;28;20277;-74
2021/04/19 03:21:12;;;;;;;;;;;231.10;2022.40;;;;;;5074580;28;19957;-69
2021/04/19 03:23:43;;;;;;;;;;;230.80;2099.20;;;;;;5074513;28;19905;-73
2021/04/19 03:26:09;;;;;;;;;;;231.10;2048.00;;;;;;5074333;28;19911;-74
2021/04/19 03:28:35;;;;;;;;;;;231.00;2073.60;;;;;;5056289;28;20278;-72
2021/04/19 03:31:03;;;;;;;;;;;230.90;2073.60;;;;;;5074656;28;19912;-72
2021/04/19 03:33:29;;;;;;;;;;;231.00;2073.60;;;;;;5061025;28;20427;-73
2021/04/19 03:35:55;;;;;;;;;;;231.00;2073.60;;;;;;5074357;28;20056;-72
2021/04/19 03:38:21;;;;;;;;;;;230.90;2099.20;;;;;;5074297;28;19904;-74
2021/04/19 03:40:48;;;;;;;;;;;230.90;2099.20;;;;;;5073309;28;19912;-69
2021/04/19 03:43:16;;;;;;;;;;;230.90;2099.20;;;;;;5074289;28;19995;-73
2021/04/19 03:45:42;;;;;;;;;;;230.90;2099.20;;;;;;5074000;28;19912;-73
2021/04/19 03:48:11;;;;;;;;;;;231.00;2073.60;;;;;;5068423;28;20284;-70
2021/04/19 03:50:43;;;;;;;;;;;230.90;2099.20;;;;;;5066004;28;19908;-73
2021/04/19 03:53:09;;;;;;;;;;;231.10;2073.60;;;;;;5073638;28;20373;-75
2021/04/19 03:55:35;;;;;;;;;;;231.20;2048.00;;;;;;5073775;28;19915;-68
2021/04/19 03:58:02;;;;;;;;;;;231.30;2022.40;;;;;;5073482;28;19921;-72
2021/04/19 04:00:28;;;;;;;;;;;;;;;;;;5073892;28;19911;-74
2021/04/19 04:02:54;;;;;;;;;;;;;;;;;;5065806;28;20279;-74
2021/04/19 04:05:20;;;;;;;;;;;256.20;1971.20;;;;;;5073778;28;19905;-74
2021/04/19 04:07:47;;;;;;;;;;;256.20;1971.20;;;;;;5073514;28;19917;-73
2021/04/19 04:10:13;;;;;;;;;;;256.40;1971.20;;;;;;5073368;28;19909;-76
2021/04/19 04:12:39;;;;;;;;;;;256.50;1920.00;;;;;;5073719;28;19904;-73
2021/04/19 04:15:05;;;;;;;;;;;256.50;1945.60;;;;;;5072901;28;19977;-73
2021/04/19 04:17:30;;;;;;;;;;;256.50;1971.20;;;;;;5073325;28;19916;-75
2021/04/19 04:19:56;;;;;;;;;;;256.40;1971.20;;;;;;5073126;28;19908;-73
2021/04/19 04:22:22;;;;;;;;;;;256.50;1945.60;;;;;;5073555;28;19904;-71
2021/04/19 04:24:48;;;;;;;;;;;256.30;1971.20;;;;;;5073285;28;19908;-65
2021/04/19 04:27:14;;;;;;;;;;;;;;;;;;5072916;28;19904;-74
2021/04/19 04:29:40;;;;;;;;;;;256.20;1996.80;;;;;;5072987;28;19904;-64
2021/04/19 04:32:06;;;;;;;;;;;256.20;1996.80;;;;;;5070992;28;19987;-70
2021/04/19 04:34:32;;;;;;;;;;;256.40;1971.20;;;;;;5062222;28;19912;-72
2021/04/19 04:36:58;;;;;;;;;;;256.50;1971.20;;;;;;5072807;28;19904;-71
2021/04/19 04:39:23;;;;;;;;;;;256.60;1971.20;;;;;;5073292;28;19987;-67
2021/04/19 04:41:49;;;;;;;;;;;256.70;1920.00;;;;;;5072761;28;19915;-71
2021/04/19 04:44:24;;;;;;;;;;;256.80;1920.00;;;;;;5072798;28;19904;-67
2021/04/19 04:47:05;;;;;;;;;;;256.80;1920.00;;;;;;5072855;28;19912;-71
2021/04/19 04:49:37;;;;;;;;;;;256.90;1920.00;;;;;;5052470;28;19920;-72
2021/04/19 04:52:05;;;;;;;;;;;256.80;1945.60;;;;;;5072447;28;19904;-73
2021/04/19 04:54:31;;;;;;;;;;;;;;;;;;5072245;28;19913;-73
2021/04/19 04:56:57;;;;;;;;;;;;;;;;;;5072620;28;19927;-73
2021/04/19 04:59:23;;;;;;;;;;;;;;;;;;5072634;28;19904;-66
2021/04/19 05:01:49;;;;;;;;;;;;;;;;;;5073058;28;19904;-72
2021/04/19 05:04:15;;;;;;;;;;;256.70;1945.60;;;;;;5065503;28;19908;-70
2021/04/19 05:06:41;;;;;;;;;;;256.40;1996.80;;;;;;5072582;28;20262;-65
2021/04/19 05:09:10;;;;;;;;;;;256.30;2022.40;;;;;;5072859;28;19951;-71
2021/04/19 05:11:38;;;;;;;;;;;;;;;;;;5072709;28;19909;-72
2021/04/19 05:14:04;;;;;;;;;;;;;;;;;;5072228;28;20006;-67
2021/04/19 05:16:30;;;;;;;;;;;;;;;;;;5072288;28;20025;-74
2021/04/19 05:18:56;;;;;;;;;;;;;;;;;;5054203;28;19954;-69
2021/04/19 05:21:21;;;;;;;;;;;231.20;2150.40;;;;;;5052815;28;19952;-72
2021/04/19 05:23:47;;;;;;;;;;;231.30;2227.20;;;;;;5071448;28;19943;-71
2021/04/19 05:26:13;;;;;;;;;;;256.00;2099.20;;;;;;5072473;28;19950;-63
2021/04/19 05:28:40;;;;;;;;;;;256.00;2124.80;;;;;;5072303;28;20386;-63
2021/04/19 05:31:06;;;;;;;;;;;231.10;2176.00;;;;;;5072437;28;19908;-64
2021/04/19 05:33:32;;;;;;;;;;;231.00;2176.00;;;;;;5059550;28;20039;-68
2021/04/19 05:35:57;;;;;;;;;;;231.10;2201.60;;;;;;5072486;28;20421;-63
2021/04/19 05:38:24;;;;;;;;;;;230.90;2227.20;;;;;;5072319;28;20130;-66
2021/04/19 05:40:50;;;;;;;;;;;;;;;;;;5053683;28;19908;-70
2021/04/19 05:43:16;;;;;;;;;;;256.00;2124.80;;;;;;5071999;28;19905;-71
2021/04/19 05:45:42;;;;;;;;;;;;;;;;;;5071967;28;19908;-71
2021/04/19 05:48:08;;;;;;;;;;;;;;;;;;5066712;28;20366;-70
2021/04/19 05:50:34;;;;;;;;;;;;;;;;;;5063709;28;19912;-71
2021/04/19 05:53:00;;;;;;;;;;;;;;;;;;5071943;28;19912;-65
2021/04/19 05:55:26;;;;;;;;;;;;;;;;;;5072086;28;19912;-64
2021/04/19 05:57:52;;;;;;;;;;;;;;;;;;5071904;28;19904;-64
2021/04/19 06:00:18;;;;;;;;;;;;;;;;;;5072035;28;20347;-68
2021/04/19 06:02:44;;;;;;;;;;;;;;;;;;5065267;28;20260;-71
2021/04/19 06:05:10;;;;;;;;;;;;;;;;;;5074243;28;19911;-65
2021/04/19 06:07:36;;;;;;;;;;;;;;;;;;5075748;28;19916;-70
2021/04/19 06:10:02;;;;;;;;;;;;;;;;;;5075429;28;19904;-64
2021/04/19 06:12:28;;;;;;;;;;;;;;;;;;5075795;28;19905;-70
2021/04/19 06:14:54;;;;;;;;;;;;;;;;;;5074942;28;19927;-70
2021/04/19 06:17:20;;;;;;;;;;;;;;;;;;5075487;28;19912;-66
2021/04/19 06:19:46;;;;;;;;;;;;;;;;;;5075651;28;20275;-65
2021/04/19 06:22:12;;;;;;;;;;;;;;;;;;5075390;28;19904;-69
2021/04/19 06:24:38;;;;;;;;;;;;;;;;;;5075579;28;19910;-71
2021/04/19 06:27:04;;;;;;;;;;;;;;;;;;5075335;28;19915;-69
2021/04/19 06:29:29;;;;;;;;;;;;;;;;;;5075244;28;19911;-68
2021/04/19 06:31:55;;;;;;;;;;;;;;;;;;5075390;28;19950;-69
2021/04/19 06:34:21;;;;;;;;;;;;;;;;;;5063182;28;19916;-64
2021/04/19 06:36:47;;;;;;;;;;;;;;;;;;5075244;28;19909;-67
2021/04/19 06:39:13;;;;;;;;;;;;;;;;;;5075286;28;19905;-65
2021/04/19 06:41:39;;;;;;;;;;;;;;;;;;5075130;28;19911;-70
2021/04/19 06:44:05;;;;;;;;;;;;;;;;;;5074887;28;19966;-74
2021/04/19 06:46:31;;;;;;;;;;;;;;;;;;5075022;28;19914;-74
2021/04/19 06:48:57;;;;;;;;;;;;;;;;;;5044677;28;19911;-73
2021/04/19 06:51:23;;;;;;;;;;;;;;;;;;5073039;28;19905;-76
2021/04/19 06:53:49;;;;;;;;;;;;;;;;;;5074836;28;19916;-71
2021/04/19 06:56:14;;;;;;;;;;;;;;;;;;5074782;28;19987;-72
2021/04/19 06:58:40;;;;;;;;;;;;;;;;;;5074855;28;20038;-71
2021/04/19 07:01:06;;;;;;;;;;;307.60;1868.80;;;;;;5074410;28;20100;-72
2021/04/19 07:03:32;;;;;;;;;;;307.60;1843.20;;;;;;5054175;28;20444;-71
2021/04/19 07:05:58;;;;;;;;;;;;;;;;;;5054767;28;19931;-72
2021/04/19 07:08:24;;;;;;;;;;;;;;;;;;5072737;28;19904;-67
2021/04/19 07:10:50;;;;;;;;;;;;;;;;;;5074663;28;20335;-71
2021/04/19 07:13:16;;;;;;;;;;;;;;;;;;5074560;28;20328;-70
2021/04/19 07:15:42;;;;;;;;;;;;;;;;;;5072299;28;19916;-71
2021/04/19 07:18:08;;;;;;;;;;;;;;;;;;5073098;28;19909;-67
2021/04/19 07:20:34;;;;;;;;;;;;;;;;;;5073384;28;19911;-68
2021/04/19 07:23:00;;;;;;;;;;;;;;;;;;5073302;28;19995;-71
2021/04/19 07:25:26;;;;;;;;;;;;;;;;;;5072999;28;20004;-69
2021/04/19 07:27:52;;;;;;;;;;;;;;;;;;5073658;28;19908;-71
2021/04/19 07:30:18;;;;;;;;;;;;;;;;;;5058934;28;19904;-69
2021/04/19 07:32:44;;;;;;;;;;;;;;;;;;5066609;28;19966;-71
2021/04/19 07:35:11;;;;;;;;;;;;;;;;;;5067906;28;19908;-72
2021/04/19 07:37:37;;;;;;;;;;;;;;;;;;5072973;28;19908;-71
2021/04/19 07:40:03;;;;;;;;;;;;;;;;;;5073475;28;19911;-71
2021/04/19 07:42:29;;;;;;;;;;;;;;;;;;5072591;28;19905;-67
2021/04/19 07:44:56;;;;;;;;;;;358.90;1689.60;;;;;;5072623;28;19909;-71
2021/04/19 07:47:27;;;;;;;;;;;359.00;1689.60;;;;;;5072659;28;19999;-69
2021/04/19 07:49:53;;;;;;;;;;;;;;;;;;5052881;28;19909;-71
2021/04/19 07:52:18;;;;;;;;;;;;;;;;;;5046788;28;19931;-67
2021/04/19 07:54:44;;;;;;;;;;;;;;;;;;5068778;28;19920;-76
2021/04/19 07:57:11;;;;;;;;;;;;;;;;;;5062649;28;20388;-75
2021/04/19 07:59:38;;;;;;;;;;;;;;;;;;5070369;28;20003;-74
2021/04/19 08:02:04;;;;;;;;;;;;;;;;;;5060091;28;20255;-75
2021/04/19 08:04:30;;;;;;;;;;;;;;;;;;5066658;28;19905;-76
2021/04/19 08:06:56;;;;;;;;;;;;;;;;;;5072614;28;19955;-75
2021/04/19 08:09:22;;;;;;;;;;;;;;;;;;5072614;28;19911;-75
2021/04/19 08:11:50;;;;;;;;;;;;;;;;;;5072559;28;19906;-72
2021/04/19 08:14:16;;;;;;;;;;;;;;;;;;5049502;28;653250;-75
2021/04/19 08:16:42;;;;;;;;;;;;;;;;;;5059060;28;19908;-75
2021/04/19 08:19:07;;;;;;;;;;;;;;;;;;5073347;28;19987;-74
2021/04/19 08:21:33;;;;;;;;;;;;;;;;;;5073277;28;20046;-78
2021/04/19 08:23:59;;;;;;;;;;;;;;;;;;5073299;28;20372;-73
2021/04/19 08:26:25;;;;;;;;;;;;;;;;;;5073510;28;19949;-78
2021/04/19 08:28:52;;;;;;;;;;;;;;;;;;5072932;28;20339;-77
2021/04/19 08:31:18;;;;;;;;;;;;;;;;;;5072997;28;19939;-76
2021/04/19 08:33:44;;;;;;;;;;;;;;;;;;5061268;28;20386;-76
2021/04/19 08:36:10;;;;;;;;;;;;;;;;;;5074107;28;19904;-76
2021/04/19 08:38:36;;;;;;;;;;;;;;;;;;5072008;28;20365;-75
2021/04/19 08:41:02;;;;;;;;;;;;;;;;;;5059835;28;19962;-69
2021/04/19 08:43:28;;;;;;;;;;;;;;;;;;5072707;28;19904;-73
2021/04/19 08:45:54;;;;;;;;;;;;;;;;;;5072556;28;19908;-73
2021/04/19 08:48:19;;;;;;;;;;;;;;;;;;5065522;28;20436;-72
2021/04/19 08:50:46;;;;;;;;;;;;;;;;;;5065654;28;19912;-71
2021/04/19 08:53:12;;;;;;;;;;;;;;;;;;5067227;28;19928;-68
2021/04/19 08:55:38;;;;;;;;;;;;;;;;;;5063804;28;19908;-68
2021/04/19 08:58:08;;;;;;;;;;;;;;;;;;5072692;28;20382;-69
2021/04/19 09:00:34;;;;;;;;;;;435.30;1356.80;;;;;;5072374;28;19904;-67
2021/04/19 09:03:00;;;;;;;;;;;;;;;;;;5065615;28;19909;-69
2021/04/19 09:05:26;;;;;;;;;;;;;;;;;;5072478;28;19916;-68
2021/04/19 09:07:52;;;;;;;;;;;;;;;;;;5072431;28;19904;-69
2021/04/19 09:10:19;;;;;;;;;;;460.90;1254.40;;;;;;5072500;28;19904;-70
2021/04/19 09:12:45;;;;;;;;;;;460.90;1177.60;;;;;;5072728;28;19905;-71
2021/04/19 09:15:25;;;;;;;;;;;461.20;1177.60;;;;;;5071916;28;19916;-71
2021/04/19 09:18:09;;;;;;;;;;;461.20;1203.20;;;;;;5060214;28;19913;-76
2021/04/19 09:20:44;;;;;;;;;;;461.00;1203.20;;;;;;5027822;28;19905;-78
2021/04/19 09:23:17;;;;;;;;;;;461.40;1152.00;;;;;;5072676;28;19904;-67
2021/04/19 09:25:43;;;;;;;;;;;461.20;1177.60;;;;;;5046242;28;19914;-72
2021/04/19 09:28:08;;;;;;;;;;;461.70;1152.00;;;;;;5072698;28;20003;-69
2021/04/19 09:30:37;;;;;;;;;;;486.60;1126.40;;;;;;5058186;28;19952;-67
2021/04/19 09:33:02;;;;;;;;;;;487.00;1100.80;;;;;;5063742;28;20286;-67
2021/04/19 09:35:49;;;;;;;;;;;486.90;1075.20;;;;;;5055180;28;19905;-69
2021/04/19 09:38:48;;;;;;;;;;;487.30;1024.00;;;;;;5072254;28;20369;-68
2021/04/19 09:41:16;;;;;;;;;;;487.20;1024.00;;;;;;5053572;28;19950;-68
2021/04/19 09:43:41;;;;;;;;;;;487.10;1049.60;;;;;;5075976;28;19905;-69
2021/04/19 09:46:07;;;;;;;;;;;487.00;1049.60;;;;;;5076102;28;19912;-71
2021/04/19 09:48:34;;;;;;;;;;;486.70;1075.20;;;;;;5058172;28;19905;-66
2021/04/19 09:51:00;;;;;;;;;;;;;;;;;;5065994;28;19905;-66
2021/04/19 09:53:26;;;;;;;;;;;461.70;1152.00;;;;;;5076090;28;19920;-70
2021/04/19 09:55:52;;;;;;;;;;;461.40;1152.00;;;;;;5076235;28;20351;-67
2021/04/19 09:58:18;;;;;;;;;;;461.10;1177.60;;;;;;5075829;28;19911;-71
2021/04/19 10:00:45;;;;;;;;;;;460.80;1228.80;;;;;;5076200;28;19904;-70
2021/04/19 10:03:11;;;;;;;;;;;436.10;1254.40;;;;;;5069510;28;19967;-67
2021/04/19 10:05:38;;;;;;;;;;;435.80;1228.80;;;;;;5075712;28;19905;-72
2021/04/19 10:08:05;;;;;;;;;;;435.80;1254.40;;;;;;5075760;28;19908;-70
2021/04/19 10:10:31;;;;;;;;;;;435.60;1228.80;;;;;;5075708;28;19911;-70
2021/04/19 10:12:56;;;;;;;;;;;435.50;1228.80;;;;;;5075595;28;19908;-68
2021/04/19 10:15:26;;;;;;;;;;;435.50;1254.40;;;;;;5075098;28;19920;-68
2021/04/19 10:17:52;;;;;;;;;;;435.50;1228.80;;;;;;5075558;28;19915;-70
2021/04/19 10:20:22;;;;;;;;;;;435.30;1203.20;;;;;;5071210;28;19904;-67
2021/04/19 10:23:06;;;;;;;;;;;435.20;1254.40;;;;;;5055673;28;19931;-70
2021/04/19 10:25:32;;;;;;;;;;;435.20;1280.00;;;;;;5046506;28;19908;-71
2021/04/19 10:27:58;;;;;;;;;;;410.50;1305.60;;;;;;5073010;28;20433;-71
2021/04/19 10:30:24;;;;;;;;;;;410.50;1331.20;;;;;;5071890;28;19959;-74
2021/04/19 10:32:50;;;;;;;;;;;410.40;1305.60;;;;;;5072898;28;19912;-70
2021/04/19 10:35:35;;;;;;;;;;;410.30;1331.20;;;;;;5073004;28;19905;-77
2021/04/19 10:38:01;;;;;;;;;;;410.20;1280.00;;;;;;5074509;28;20021;-69
2021/04/19 10:40:27;;;;;;;;;;;410.20;1484.80;;;;;;5072337;28;19909;-74
2021/04/19 10:42:53;;;;;;;;;;;409.90;1305.60;;;;;;5072017;28;19904;-70
2021/04/19 10:45:19;;;;;;;;;;;410.00;1305.60;;;;;;5072158;28;19954;-73
2021/04/19 10:47:45;;;;;;;;;;;409.90;1331.20;;;;;;5069181;28;19908;-69
2021/04/19 10:50:11;;;;;;;;;;;409.80;1356.80;;;;;;5064620;28;19915;-71
2021/04/19 10:52:37;;;;;;;;;;;409.90;1356.80;;;;;;5072168;28;19908;-71
2021/04/19 10:55:04;;;;;;;;;;;409.80;1356.80;;;;;;5071589;28;19957;-67
2021/04/19 10:57:30;;;;;;;;;;;409.90;1331.20;;;;;;5071973;28;19914;-67
2021/04/19 10:59:57;;;;;;;;;;;409.60;1382.40;;;;;;5056154;28;19908;-68
2021/04/19 11:02:27;;;;;;;;;;;409.60;1382.40;;;;;;5060586;28;19915;-74
2021/04/19 11:04:53;;;;;;;;;;;409.80;1382.40;;;;;;5067932;28;19905;-69
2021/04/19 11:07:24;;;;;;;;;;;409.70;1356.80;;;;;;5054652;28;19904;-71
2021/04/19 11:10:08;;;;;;;;;;;409.70;1331.20;;;;;;5054436;28;19905;-74
2021/04/19 11:12:34;;;;;;;;;;;409.80;1305.60;;;;;;5054499;28;19905;-72
2021/04/19 11:15:12;;;;;;;;;;;409.80;1305.60;;;;;;5053929;28;19917;-72
2021/04/19 11:17:37;;;;;;;;;;;409.70;1331.20;;;;;;5053717;28;19913;-70
2021/04/19 11:20:21;;;;;;;;;;;409.60;1382.40;;;;;;5054391;28;19996;-71
2021/04/19 11:22:47;;;;;;;;;;;409.60;1382.40;;;;;;5054361;28;19905;-72
2021/04/19 11:25:14;;;;;;;;;;;409.60;1382.40;;;;;;5054081;28;19924;-73
2021/04/19 11:27:40;;;;;;;;;;;384.90;1356.80;;;;;;5054210;28;19905;-72
2021/04/19 11:30:25;;;;;;;;;;;384.90;1408.00;;;;;;5054127;28;19912;-70
2021/04/19 11:33:07;;;;;;;;;;;384.90;1408.00;;;;;;5043499;28;19905;-73
2021/04/19 11:35:36;;;;;;;;;;;384.90;1408.00;;;;;;5053787;28;19919;-73
2021/04/19 11:38:03;;;;;;;;;;;384.90;1408.00;;;;;;5054046;28;19909;-72
2021/04/19 11:40:34;;;;;;;;;;;384.90;1433.60;;;;;;5053827;28;20362;-69
2021/04/19 11:43:14;;;;;;;;;;;384.70;1433.60;;;;;;5054057;28;20392;-74
2021/04/19 11:45:40;;;;;;;;;;;;;;;;;;5054126;28;19960;-73
2021/04/19 11:48:06;;;;;;;;;;;;;;;;;;5053753;28;19913;-73
2021/04/19 11:50:32;;;;;;;;;;;;;;;;;;5064908;28;19933;-73
2021/04/19 11:52:58;;;;;;;;;;;;;;;;;;5073470;28;19905;-72
2021/04/19 11:55:24;;;;;;;;;;;;;;;;;;5073574;28;19909;-73
2021/04/19 11:57:50;;;;;;;;;;;;;;;;;;5055460;28;19904;-71
2021/04/19 12:00:17;;;;;;;;;;;;;;;;;;5073665;28;20323;-73
2021/04/19 12:02:43;;;;;;;;;;;;;;;;;;5068088;28;19999;-72
2021/04/19 12:05:09;;;;;;;;;;;;;;;;;;5073117;28;19963;-73
2021/04/19 12:07:35;;;;;;;;;;;384.60;1382.40;;;;;;5073343;28;20438;-72
2021/04/19 12:10:01;;;;;;;;;;;384.50;1408.00;;;;;;5071824;28;19911;-69
2021/04/19 12:12:26;;;;;;;;;;;384.50;1408.00;;;;;;5053440;28;19905;-72
2021/04/19 12:14:52;;;;;;;;;;;384.40;1408.00;;;;;;5052786;28;19995;-73
2021/04/19 12:17:18;;;;;;;;;;;384.40;1382.40;;;;;;5060812;28;19914;-72
2021/04/19 12:19:43;;;;;;;;;;;384.30;1408.00;;;;;;5059521;28;19915;-73
2021/04/19 12:22:09;;;;;;;;;;;384.20;1408.00;;;;;;5052853;28;19912;-72
2021/04/19 12:24:35;;;;;;;;;;;384.20;1433.60;;;;;;5053007;28;20353;-70
2021/04/19 12:27:00;;;;;;;;;;;384.30;1408.00;;;;;;5053047;28;19905;-71
2021/04/19 12:29:26;;;;;;;;;;;384.40;1408.00;;;;;;5053165;28;19932;-70
2021/04/19 12:31:52;;;;;;;;;;;384.40;1408.00;;;;;;5053125;28;19904;-71
2021/04/19 12:34:17;;;;;;;;;;;384.40;1408.00;;;;;;5045764;28;19920;-69
2021/04/19 12:36:44;;;;;;;;;;;384.30;1408.00;;;;;;5052712;28;20273;-71
2021/04/19 12:39:09;;;;;;;;;;;384.40;1382.40;;;;;;5052554;28;19926;-72
2021/04/19 12:41:35;;;;;;;;;;;384.50;1382.40;;;;;;5052504;28;20346;-72
2021/04/19 12:44:02;;;;;;;;;;;384.70;1382.40;;;;;;5052721;28;19928;-72
2021/04/19 12:46:27;;;;;;;;;;;409.60;1382.40;;;;;;5052571;28;19909;-71
2021/04/19 12:48:54;;;;;;;;;;;409.70;1356.80;;;;;;5052495;28;20011;-71
2021/04/19 12:51:20;;;;;;;;;;;409.70;1664.00;;;;;;5070402;28;20002;-70
2021/04/19 12:53:46;;;;;;;;;;;409.80;1356.80;;;;;;5072650;28;19916;-72
2021/04/19 12:56:12;;;;;;;;;;;409.80;1356.80;;;;;;5072791;28;19904;-73
2021/04/19 12:58:40;;;;;;;;;;;384.90;1356.80;;;;;;5073058;28;20319;-71
2021/04/19 13:01:07;;;;;;;;;;;409.60;1382.40;;;;;;5072488;28;19909;-72
2021/04/19 13:03:32;;;;;;;;;;;410.00;1331.20;;;;;;5067328;28;19966;-73
2021/04/19 13:05:58;;;;;;;;;;;410.10;1305.60;;;;;;5072576;28;19931;-69
2021/04/19 13:08:23;;;;;;;;;;;410.00;1331.20;;;;;;5068168;28;20428;-72
2021/04/19 13:10:49;;;;;;;;;;;435.20;1280.00;;;;;;5052836;28;20003;-73
2021/04/19 13:13:14;;;;;;;;;;;435.30;1305.60;;;;;;5051700;28;19924;-72
2021/04/19 13:15:40;;;;;;;;;;;435.60;1254.40;;;;;;5051876;28;19928;-73
2021/04/19 13:18:06;;;;;;;;;;;435.50;1254.40;;;;;;5066606;28;19924;-72
2021/04/19 13:20:32;;;;;;;;;;;435.80;1254.40;;;;;;5072185;28;19904;-73
2021/04/19 13:22:58;;;;;;;;;;;435.80;1228.80;;;;;;5072314;28;19905;-71
2021/04/19 13:25:24;;;;;;;;;;;435.80;1228.80;;;;;;5072039;28;19911;-72
2021/04/19 13:27:49;;;;;;;;;;;435.80;1228.80;;;;;;5072356;28;19927;-72
2021/04/19 13:30:15;;;;;;;;;;;435.80;1228.80;;;;;;5072220;28;19904;-72
2021/04/19 13:32:41;;;;;;;;;;;435.80;1254.40;;;;;;5067980;28;19904;-74
2021/04/19 13:35:08;;;;;;;;;;;435.80;1228.80;;;;;;5066241;28;19916;-73
2021/04/19 13:37:34;;;;;;;;;;;435.90;1203.20;;;;;;5072284;28;19962;-71
2021/04/19 13:39:59;;;;;;;;;;;435.90;1203.20;;;;;;5071974;28;19904;-71
2021/04/19 13:42:25;;;;;;;;;;;435.90;1203.20;;;;;;5072114;28;19995;-73
2021/04/19 13:44:51;;;;;;;;;;;435.90;1203.20;;;;;;5072401;28;19963;-73
2021/04/19 13:47:16;;;;;;;;;;;435.90;1203.20;;;;;;5072292;28;19920;-69
2021/04/19 13:49:42;;;;;;;;;;;435.80;1203.20;;;;;;5067960;28;19912;-69
2021/04/19 13:52:07;;;;;;;;;;;435.80;1228.80;;;;;;5052235;28;20350;-73
2021/04/19 13:54:33;;;;;;;;;;;435.90;1203.20;;;;;;5068107;28;19935;-73
2021/04/19 13:56:58;;;;;;;;;;;435.80;1203.20;;;;;;5072004;28;19915;-71
2021/04/19 13:59:24;;;;;;;;;;;435.50;1254.40;;;;;;5071965;28;19912;-73
2021/04/19 14:01:49;;;;;;;;;;;435.40;1254.40;;;;;;5072211;28;20270;-70
2021/04/19 14:04:17;;;;;;;;;;;435.20;1280.00;;;;;;5067028;28;20329;-70
2021/04/19 14:06:42;;;;;;;;;;;410.10;1305.60;;;;;;5071813;28;19915;-72
2021/04/19 14:09:08;;;;;;;;;;;410.00;1331.20;;;;;;5072103;28;20029;-72
2021/04/19 14:11:33;;;;;;;;;;;410.20;1305.60;;;;;;5071479;28;20381;-69
2021/04/19 14:13:59;;;;;;;;;;;410.20;1305.60;;;;;;5071360;28;19920;-70
2021/04/19 14:16:25;;;;;;;;;;;410.20;1305.60;;;;;;5071551;28;19908;-71
2021/04/19 14:18:52;;;;;;;;;;;410.30;1305.60;;;;;;5058693;28;19904;-69
2021/04/19 14:21:17;;;;;;;;;;;410.30;1305.60;;;;;;5071474;28;20269;-71
2021/04/19 14:23:43;;;;;;;;;;;410.20;1459.20;;;;;;5071606;28;19912;-72
2021/04/19 14:26:08;;;;;;;;;;;410.30;1305.60;;;;;;5074311;28;19904;-72
2021/04/19 14:28:35;;;;;;;;;;;410.20;1305.60;;;;;;5075139;28;19904;-69
2021/04/19 14:31:01;;;;;;;;;;;410.10;1331.20;;;;;;5075735;28;20303;-72
2021/04/19 14:33:27;;;;;;;;;;;410.00;1356.80;;;;;;5065629;28;19936;-71
2021/04/19 14:35:53;;;;;;;;;;;409.90;1331.20;;;;;;5075145;28;20302;-73
2021/04/19 14:38:19;;;;;;;;;;;409.90;1356.80;;;;;;5075663;28;19912;-72
2021/04/19 14:40:45;;;;;;;;;;;409.80;1356.80;;;;;;5073871;28;19909;-70
2021/04/19 14:43:10;;;;;;;;;;;409.90;1382.40;;;;;;5055376;28;19935;-72